Time;durP1;ratioP1;P1;durP2;ratioP2;P2;SDS_P1;SDS_P2;PMS_P1;PMS_P2;Temp;Humidity;BMP_temperature;BMP_pressure;BME280_temperature;BME280_humidity;BME280_pressure;Samples;Min_cycle;Max_cycle;Signal;HPM_P1;HPM_P2
2022/06/30 00:00:04;;;;;;;9.35;8.45;;;19.00;99.90;;;;;;5076103;28;20083;-25
2022/06/30 00:02:30;;;;;;;8.00;7.20;;;19.10;99.90;;;;;;5076151;28;20386;-25
2022/06/30 00:04:55;;;;;;;7.15;6.45;;;19.10;99.90;;;;;;5076149;28;20074;-25
2022/06/30 00:07:21;;;;;;;7.38;5.72;;;19.10;99.90;;;;;;5076083;28;20047;-25
2022/06/30 00:09:47;;;;;;;6.45;5.85;;;19.20;99.90;;;;;;5075794;28;20137;-25
2022/06/30 00:12:12;;;;;;;6.00;5.40;;;19.20;24.10;;;;;;5075681;28;20051;-25
2022/06/30 00:14:39;;;;;;;8.05;5.07;;;19.20;1.00;;;;;;5074890;28;20052;-25
2022/06/30 00:17:05;;;;;;;6.07;4.60;;;19.20;1.00;;;;;;5075912;28;20051;-25
2022/06/30 00:19:31;;;;;;;5.07;4.10;;;19.20;1.00;;;;;;5075867;28;20040;-25
2022/06/30 00:21:56;;;;;;;7.15;4.47;;;19.30;99.90;;;;;;5075799;28;20375;-25
2022/06/30 00:24:22;;;;;;;5.53;4.32;;;19.30;99.90;;;;;;5075764;28;20041;-25
2022/06/30 00:26:48;;;;;;;4.82;3.90;;;19.30;99.90;;;;;;5075745;28;20048;-25
2022/06/30 00:29:13;;;;;;;5.05;4.53;;;19.20;99.90;;;;;;5075701;28;20478;-25
2022/06/30 00:31:39;;;;;;;5.68;4.40;;;19.30;99.90;;;;;;5074741;28;20123;-25
2022/06/30 00:34:05;;;;;;;4.35;3.92;;;19.20;99.90;;;;;;5075591;28;20094;-25
2022/06/30 00:36:30;;;;;;;5.65;3.63;;;19.20;99.90;;;;;;5076048;28;20143;-25
2022/06/30 00:38:56;;;;;;;6.40;4.43;;;19.20;99.90;;;;;;5058640;28;20044;-26
2022/06/30 00:41:22;;;;;;;4.10;3.70;;;19.20;99.90;;;;;;5074468;28;20040;-25
2022/06/30 00:43:48;;;;;;;4.07;3.13;;;19.20;99.90;;;;;;5075059;28;20105;-25
2022/06/30 00:46:15;;;;;;;3.95;3.55;;;19.20;99.90;;;;;;5075324;28;20040;-26
2022/06/30 00:48:42;;;;;;;6.95;2.95;;;19.20;99.90;;;;;;5074309;28;20117;-25
2022/06/30 00:51:08;;;;;;;5.70;3.15;;;19.20;92.50;;;;;;5075783;28;20041;-25
2022/06/30 00:53:39;;;;;;;5.10;3.00;;;19.20;68.30;;;;;;5075721;28;20041;-25
2022/06/30 00:56:07;;;;;;;4.00;3.00;;;19.20;51.90;;;;;;5074865;28;20494;-25
2022/06/30 00:58:38;;;;;;;3.60;2.85;;;19.20;56.30;;;;;;5075096;28;20048;-25
2022/06/30 01:01:06;;;;;;;5.35;3.30;;;19.10;75.50;;;;;;5074569;28;20382;-25
2022/06/30 01:03:33;;;;;;;5.32;3.22;;;19.00;93.60;;;;;;5056774;28;20055;-25
2022/06/30 01:06:00;;;;;;;4.45;3.30;;;19.00;99.90;;;;;;5057557;28;20044;-25
2022/06/30 01:08:28;;;;;;;4.93;2.97;;;18.90;99.90;;;;;;5073803;28;20158;-25
2022/06/30 01:13:38;;;;;;;5.47;3.10;;;18.80;99.90;;;;;;5075116;28;20398;-25
2022/06/30 01:16:04;;;;;;;4.88;3.15;;;18.70;99.90;;;;;;5074932;28;20044;-25
2022/06/30 01:18:33;;;;;;;4.07;3.30;;;18.60;99.90;;;;;;5075004;28;20058;-25
2022/06/30 01:21:00;;;;;;;5.18;3.40;;;18.50;99.90;;;;;;5075106;28;20084;-25
2022/06/30 01:23:25;;;;;;;5.00;3.78;;;18.50;99.90;;;;;;5073594;28;20157;-25
2022/06/30 01:25:51;;;;;;;6.18;3.63;;;18.40;99.90;;;;;;5075056;28;20083;-25
2022/06/30 01:28:18;;;;;;;4.53;3.65;;;18.40;99.90;;;;;;5074462;28;20106;-25
2022/06/30 01:30:43;;;;;;;3.95;3.55;;;18.30;99.90;;;;;;5074437;28;20041;-25
2022/06/30 01:33:09;;;;;;;4.18;3.78;;;18.30;99.90;;;;;;5074375;28;20051;-25
2022/06/30 01:35:35;;;;;;;5.60;3.50;;;18.20;99.90;;;;;;5073649;28;20041;-25
2022/06/30 01:38:01;;;;;;;7.55;3.20;;;18.20;99.90;;;;;;5074383;28;20543;-25
2022/06/30 01:40:30;;;;;;;6.88;3.25;;;18.20;99.90;;;;;;5073143;28;20044;-25
2022/06/30 01:42:56;;;;;;;4.72;3.53;;;18.20;99.90;;;;;;5073777;28;20052;-25
2022/06/30 01:45:23;;;;;;;5.70;3.63;;;18.20;99.90;;;;;;5074232;28;20159;-25
2022/06/30 01:47:50;;;;;;;5.55;3.83;;;18.20;99.90;;;;;;5074119;28;20054;-25
2022/06/30 01:50:36;;;;;;;5.63;3.47;;;18.10;99.90;;;;;;5039821;28;20045;-25
2022/06/30 01:53:03;;;;;;;5.05;3.72;;;18.00;99.90;;;;;;5072283;28;20117;-25
2022/06/30 01:55:29;;;;;;;6.72;3.65;;;18.00;99.90;;;;;;5074585;28;20055;-25
2022/06/30 01:57:55;;;;;;;5.57;3.50;;;18.00;99.90;;;;;;5073093;28;20119;-25
2022/06/30 02:00:26;;;;;;;5.47;3.80;;;17.90;99.90;;;;;;5073965;28;20036;-25
2022/06/30 02:02:54;;;;;;;7.85;3.30;;;17.90;99.90;;;;;;5074278;28;20063;-25
2022/06/30 02:05:20;;;;;;;5.13;3.50;;;17.90;99.90;;;;;;5073923;28;20470;-25
2022/06/30 02:07:46;;;;;;;5.68;3.45;;;17.90;99.90;;;;;;5074121;28;20048;-25
2022/06/30 02:10:22;;;;;;;5.32;3.25;;;17.90;99.90;;;;;;5074529;28;20127;-25
2022/06/30 02:12:48;;;;;;;4.40;3.80;;;17.80;99.90;;;;;;5072690;28;20045;-25
2022/06/30 02:15:23;;;;;;;5.28;3.30;;;17.80;99.90;;;;;;5072946;28;20474;-25
2022/06/30 02:17:53;;;;;;;9.18;3.88;;;17.80;99.90;;;;;;5073781;28;20124;-25
2022/06/30 02:20:23;;;;;;;5.53;3.08;;;17.70;99.90;;;;;;5072669;28;20075;-25
2022/06/30 02:22:52;;;;;;;3.95;3.28;;;17.80;99.90;;;;;;5074082;28;20055;-25
2022/06/30 02:25:17;;;;;;;3.33;3.00;;;17.80;99.90;;;;;;5073965;28;20120;-25
2022/06/30 02:27:43;;;;;;;3.45;3.00;;;17.80;99.90;;;;;;5056029;28;20533;-25
2022/06/30 02:30:09;;;;;;;4.57;3.67;;;17.90;99.90;;;;;;5074155;28;20082;-25
2022/06/30 02:32:35;;;;;;;5.85;2.95;;;17.90;99.90;;;;;;5073598;28;20088;-25
2022/06/30 02:35:02;;;;;;;3.03;2.60;;;17.90;99.90;;;;;;5072956;28;20087;-25
2022/06/30 02:37:27;;;;;;;6.05;2.60;;;18.00;99.90;;;;;;5073564;28;20095;-25
2022/06/30 02:39:53;;;;;;;4.88;2.95;;;18.00;99.90;;;;;;5073488;28;20486;-25
2022/06/30 02:42:19;;;;;;;7.20;2.88;;;17.90;99.90;;;;;;5072570;28;20486;-25
2022/06/30 02:44:45;;;;;;;3.88;3.13;;;17.90;99.90;;;;;;5072293;28;20139;-25
2022/06/30 02:47:10;;;;;;;4.28;3.03;;;17.90;99.90;;;;;;5072270;28;20048;-25
2022/06/30 02:49:38;;;;;;;3.88;2.80;;;17.90;99.90;;;;;;5074008;28;20045;-25
2022/06/30 02:52:04;;;;;;;7.13;4.05;;;17.90;99.90;;;;;;5072434;28;20053;-25
2022/06/30 02:54:30;;;;;;;5.05;3.10;;;17.90;99.90;;;;;;5073923;28;20047;-25
2022/06/30 02:56:55;;;;;;;4.78;2.95;;;17.80;99.90;;;;;;5073343;28;20056;-25
2022/06/30 02:59:21;;;;;;;4.55;3.30;;;17.80;99.90;;;;;;5073891;28;20040;-25
2022/06/30 03:01:47;;;;;;;4.95;3.33;;;17.80;99.90;;;;;;5073229;28;20040;-25
2022/06/30 03:04:12;;;;;;;4.15;3.40;;;17.80;99.90;;;;;;5073369;28;20086;-25
2022/06/30 03:06:38;;;;;;;3.50;2.88;;;17.70;99.90;;;;;;5073304;28;20056;-25
2022/06/30 03:09:04;;;;;;;5.75;3.15;;;17.70;99.90;;;;;;5074057;28;20056;-25
2022/06/30 03:11:30;;;;;;;6.50;3.40;;;17.70;99.90;;;;;;5073071;28;20417;-25
2022/06/30 03:13:56;;;;;;;5.53;3.72;;;17.60;1.00;;;;;;5073151;28;20098;-25
2022/06/30 03:16:21;;;;;;;4.80;3.30;;;17.60;1.00;;;;;;5073903;28;20080;-25
2022/06/30 03:18:47;;;;;;;5.07;2.63;;;17.60;1.00;;;;;;5072246;28;20450;-25
2022/06/30 03:21:13;;;;;;;4.43;3.20;;;17.60;1.00;;;;;;5073049;28;20501;-25
2022/06/30 03:23:39;;;;;;;7.30;3.63;;;17.70;1.00;;;;;;5071611;28;20494;-25
2022/06/30 03:26:05;;;;;;;6.85;3.42;;;17.70;1.00;;;;;;5073901;28;20371;-25
2022/06/30 03:28:32;;;;;;;6.70;3.50;;;17.60;1.00;;;;;;5076810;28;20052;-25
2022/06/30 03:30:58;;;;;;;4.65;3.20;;;17.60;1.00;;;;;;5076496;28;20056;-25
2022/06/30 03:33:25;;;;;;;5.32;4.00;;;17.60;1.00;;;;;;5076709;28;20049;-25
2022/06/30 03:35:51;;;;;;;4.15;3.53;;;17.60;1.00;;;;;;5075661;28;20082;-25
2022/06/30 03:38:17;;;;;;;3.63;3.22;;;17.60;1.00;;;;;;5077213;28;20049;-25
2022/06/30 03:40:43;;;;;;;5.95;3.83;;;17.60;1.00;;;;;;5076515;28;20047;-25
2022/06/30 03:43:09;;;;;;;6.63;3.22;;;17.60;1.00;;;;;;5075972;28;20044;-25
2022/06/30 03:45:35;;;;;;;4.13;3.30;;;17.60;1.00;;;;;;5076521;28;20037;-25
2022/06/30 03:48:02;;;;;;;7.40;3.53;;;17.70;1.00;;;;;;5076344;28;20056;-25
2022/06/30 03:50:28;;;;;;;4.88;3.30;;;17.70;1.00;;;;;;5076398;28;20098;-25
2022/06/30 03:52:54;;;;;;;5.28;3.25;;;17.70;1.00;;;;;;5076070;28;20556;-25
2022/06/30 03:55:20;;;;;;;7.13;4.18;;;17.70;1.00;;;;;;5076348;28;20048;-25
2022/06/30 03:57:46;;;;;;;7.07;3.70;;;17.70;1.00;;;;;;5076152;28;20048;-25
2022/06/30 04:00:12;;;;;;;7.18;3.45;;;17.70;1.00;;;;;;5076183;28;20076;-25
2022/06/30 04:02:38;;;;;;;3.92;3.17;;;17.70;1.00;;;;;;5076170;28;20056;-25
2022/06/30 04:05:04;;;;;;;7.45;3.35;;;17.70;1.00;;;;;;5058366;28;20087;-25
2022/06/30 04:07:30;;;;;;;3.85;3.47;;;17.70;1.00;;;;;;5076368;28;20087;-25
2022/06/30 04:09:56;;;;;;;8.85;3.50;;;17.70;1.00;;;;;;5075915;28;20088;-25
2022/06/30 04:12:21;;;;;;;5.85;3.70;;;17.70;1.00;;;;;;5076591;28;20470;-25
2022/06/30 04:14:47;;;;;;;4.13;3.20;;;17.70;1.00;;;;;;5075907;28;20048;-25
2022/06/30 04:17:13;;;;;;;6.28;4.30;;;17.70;1.00;;;;;;5075976;28;20055;-25
2022/06/30 04:19:38;;;;;;;5.68;3.50;;;17.70;1.00;;;;;;5075604;28;20045;-25
2022/06/30 04:22:05;;;;;;;5.57;3.83;;;17.70;1.00;;;;;;5075768;28;20179;-25
2022/06/30 04:24:31;;;;;;;5.32;3.42;;;17.80;1.00;;;;;;5075800;28;20044;-25
2022/06/30 04:26:57;;;;;;;5.70;3.63;;;17.80;1.00;;;;;;5075771;28;20500;-25
2022/06/30 04:29:23;;;;;;;6.53;3.70;;;18.00;1.00;;;;;;5075704;28;20049;-25
2022/06/30 04:34:33;;;;;;;5.88;3.80;;;18.00;1.00;;;;;;5075666;28;20052;-25
2022/06/30 04:36:59;;;;;;;9.18;4.13;;;18.10;1.00;;;;;;5075507;28;20053;-25
2022/06/30 04:39:25;;;;;;;7.88;4.15;;;18.20;1.00;;;;;;5074446;28;20080;-25
2022/06/30 04:41:50;;;;;;;6.35;4.00;;;18.30;1.00;;;;;;5074166;28;20052;-25
2022/06/30 04:44:16;;;;;;;4.90;3.60;;;18.30;1.00;;;;;;5075240;28;20048;-26
2022/06/30 04:46:42;;;;;;;6.32;4.30;;;18.40;1.00;;;;;;5075901;28;20047;-25
2022/06/30 04:49:07;;;;;;;5.25;4.13;;;18.50;1.00;;;;;;5075302;28;20059;-25
2022/06/30 04:51:33;;;;;;;5.90;4.22;;;18.60;1.00;;;;;;5074939;28;20127;-25
2022/06/30 04:53:59;;;;;;;7.90;4.70;;;18.70;1.00;;;;;;5075998;28;20044;-25
2022/06/30 04:56:24;;;;;;;5.05;4.03;;;18.70;1.00;;;;;;5075122;28;20371;-25
2022/06/30 04:58:50;;;;;;;5.35;3.78;;;18.80;99.90;;;;;;5075096;28;20048;-25
2022/06/30 05:01:16;;;;;;;10.13;4.25;;;18.90;1.00;;;;;;5075814;28;20378;-25
2022/06/30 05:03:42;;;;;;;8.20;5.15;;;19.00;1.00;;;;;;5074049;28;20497;-25
2022/06/30 05:06:08;;;;;;;8.85;5.10;;;19.30;1.00;;;;;;5075750;28;20120;-26
2022/06/30 05:08:34;;;;;;;6.28;3.70;;;19.80;99.90;;;;;;5075219;28;20105;-25
2022/06/30 05:11:00;;;;;;;5.20;4.40;;;20.40;99.90;;;;;;5075151;28;20487;-25
2022/06/30 05:13:27;;;;;;;4.85;3.85;;;21.10;65.80;;;;;;5073571;28;20495;-25
2022/06/30 05:15:53;;;;;;;6.32;4.13;;;21.80;1.00;;;;;;5074657;28;20117;-26
2022/06/30 05:18:19;;;;;;;8.00;4.30;;;22.40;99.90;;;;;;5074668;28;20478;-26
2022/06/30 05:20:44;;;;;;;5.70;4.18;;;22.90;90.70;;;;;;5074605;28;20048;-26
2022/06/30 05:23:11;;;;;;;5.65;4.32;;;23.30;1.00;;;;;;5074575;28;20044;-26
2022/06/30 05:28:22;;;;;;;6.60;4.18;;;23.80;99.90;;;;;;5074555;28;20055;-25
2022/06/30 05:30:51;;;;;;;8.20;4.55;;;24.00;99.90;;;;;;5074140;28;20037;-26
2022/06/30 05:33:21;;;;;;;6.55;4.97;;;24.20;99.90;;;;;;5056787;28;20098;-26
2022/06/30 05:35:53;;;;;;;4.78;4.03;;;24.20;1.00;;;;;;5074285;28;20049;-26
2022/06/30 05:38:19;;;;;;;9.03;3.97;;;24.30;1.00;;;;;;5073374;28;20483;-26
2022/06/30 05:40:46;;;;;;;5.38;4.13;;;24.30;1.00;;;;;;5074300;28;20497;-25
2022/06/30 05:43:16;;;;;;;7.78;4.40;;;24.20;1.00;;;;;;5074260;28;20054;-26
2022/06/30 05:45:42;;;;;;;5.13;3.40;;;24.20;1.00;;;;;;5073903;28;20401;-26
2022/06/30 05:48:08;;;;;;;8.52;4.28;;;24.30;1.00;;;;;;5072880;28;20048;-26
2022/06/30 05:50:34;;;;;;;10.85;4.30;;;24.50;1.00;;;;;;5074115;28;20049;-26
2022/06/30 05:53:00;;;;;;;5.28;3.78;;;24.60;1.00;;;;;;5074313;28;20048;-26
2022/06/30 05:55:26;;;;;;;4.20;3.72;;;24.70;1.00;;;;;;5074101;28;20044;-26
2022/06/30 05:58:04;;;;;;;10.65;3.80;;;24.90;1.00;;;;;;5074037;28;20174;-26
2022/06/30 06:00:31;;;;;;;7.45;4.20;;;24.90;99.90;;;;;;5073749;28;20083;-26
2022/06/30 06:02:57;;;;;;;7.35;4.22;;;24.90;1.00;;;;;;5073538;28;20393;-26
2022/06/30 06:05:24;;;;;;;6.05;3.90;;;25.00;99.90;;;;;;5073940;28;20163;-26
2022/06/30 06:07:51;;;;;;;13.48;5.03;;;24.90;99.90;;;;;;5073931;28;20049;-26
2022/06/30 06:10:17;;;;;;;6.03;4.60;;;24.90;99.90;;;;;;5074415;28;20063;-26
2022/06/30 06:12:43;;;;;;;7.95;3.58;;;25.20;99.90;;;;;;5073811;28;20052;-26
2022/06/30 06:15:14;;;;;;;7.80;4.05;;;25.40;99.90;;;;;;5073786;28;20044;-26
2022/06/30 06:17:47;;;;;;;7.78;4.03;;;25.60;99.90;;;;;;5072696;28;20080;-26
2022/06/30 06:20:14;;;;;;;5.38;4.15;;;25.50;99.90;;;;;;5073329;28;20437;-26
2022/06/30 06:22:40;;;;;;;8.88;4.00;;;25.70;99.90;;;;;;5073709;28;20048;-26
2022/06/30 06:25:07;;;;;;;6.45;3.65;;;25.80;99.90;;;;;;5073728;28;20060;-26
2022/06/30 06:27:34;;;;;;;5.20;3.78;;;25.80;99.90;;;;;;5074201;28;20048;-26
2022/06/30 06:30:01;;;;;;;4.45;3.88;;;25.80;99.90;;;;;;5072955;28;20500;-26
2022/06/30 06:32:26;;;;;;;10.57;4.47;;;25.90;99.90;;;;;;5073634;28;20044;-26
2022/06/30 06:34:52;;;;;;;6.90;3.80;;;25.90;99.90;;;;;;5073650;28;20529;-27
2022/06/30 06:37:18;;;;;;;6.13;4.18;;;26.00;99.90;;;;;;5073593;28;20055;-26
2022/06/30 06:39:43;;;;;;;7.88;4.57;;;25.90;99.90;;;;;;5073527;28;20084;-27
2022/06/30 06:42:09;;;;;;;5.82;4.07;;;25.90;99.90;;;;;;5073981;28;20073;-26
2022/06/30 06:44:35;;;;;;;8.50;4.47;;;26.00;99.90;;;;;;5073484;28;20040;-26
2022/06/30 06:47:00;;;;;;;6.63;4.38;;;26.20;99.90;;;;;;5073486;28;20130;-26
2022/06/30 06:49:27;;;;;;;7.22;4.20;;;26.30;99.90;;;;;;5055890;28;20052;-26
2022/06/30 06:51:53;;;;;;;8.00;3.65;;;26.50;99.90;;;;;;5073951;28;20045;-26
2022/06/30 06:54:19;;;;;;;6.40;4.40;;;26.60;95.20;;;;;;5073936;28;20379;-26
2022/06/30 06:56:44;;;;;;;5.05;3.90;;;26.50;99.90;;;;;;5073930;28;20123;-26
2022/06/30 06:59:10;;;;;;;5.68;3.90;;;26.40;99.90;;;;;;5073886;28;20048;-26
2022/06/30 07:01:38;;;;;;;7.50;4.22;;;26.30;99.90;;;;;;5075030;28;20064;-26
2022/06/30 07:04:04;;;;;;;4.75;4.35;;;26.20;99.90;;;;;;5076735;28;20043;-27
2022/06/30 07:06:32;;;;;;;6.18;4.07;;;26.10;99.90;;;;;;5076293;28;20037;-26
2022/06/30 07:08:58;;;;;;;6.28;4.03;;;26.20;99.90;;;;;;5076871;28;20064;-26
2022/06/30 07:11:24;;;;;;;7.60;4.28;;;26.40;99.90;;;;;;5076229;28;20139;-26
2022/06/30 07:13:49;;;;;;;5.15;4.18;;;26.50;99.90;;;;;;5077641;28;20036;-26
2022/06/30 07:16:15;;;;;;;8.30;4.03;;;26.90;99.90;;;;;;5076989;28;20040;-26
2022/06/30 07:18:41;;;;;;;5.15;4.43;;;27.20;82.10;;;;;;5076359;28;20080;-26
2022/06/30 07:21:06;;;;;;;6.20;4.53;;;27.20;9.50;;;;;;5076864;28;20049;-26
2022/06/30 07:23:32;;;;;;;4.55;3.97;;;27.00;51.10;;;;;;5075735;28;20044;-26
2022/06/30 07:25:58;;;;;;;6.18;4.45;;;27.10;90.80;;;;;;5076868;28;20098;-26
2022/06/30 07:28:23;;;;;;;5.47;3.97;;;27.20;68.00;;;;;;5075708;28;20501;-26
2022/06/30 07:30:52;;;;;;;4.53;4.13;;;27.30;18.40;;;;;;5075583;28;20047;-26
2022/06/30 07:33:18;;;;;;;4.88;3.50;;;27.40;1.00;;;;;;5076043;28;20056;-26
2022/06/30 07:35:44;;;;;;;5.43;4.32;;;27.50;1.00;;;;;;5077285;28;20045;-26
2022/06/30 07:38:10;;;;;;;6.30;4.18;;;27.50;1.00;;;;;;5076697;28;20072;-26
2022/06/30 07:40:36;;;;;;;4.68;3.80;;;27.80;1.00;;;;;;5075352;28;20126;-26
2022/06/30 07:43:02;;;;;;;7.55;4.15;;;27.90;1.00;;;;;;5076563;28;20178;-26
2022/06/30 07:45:29;;;;;;;3.80;3.47;;;27.90;99.90;;;;;;5076531;28;20402;-26
2022/06/30 07:47:54;;;;;;;6.28;4.38;;;28.10;1.00;;;;;;5077332;28;20048;-26
2022/06/30 07:50:23;;;;;;;9.30;4.28;;;28.20;99.90;;;;;;5076438;28;20382;-26
2022/06/30 07:52:52;;;;;;;6.07;4.68;;;28.20;99.90;;;;;;5075183;28;20071;-26
2022/06/30 07:55:18;;;;;;;6.57;5.03;;;28.00;99.90;;;;;;5076327;28;20047;-26
2022/06/30 07:57:47;;;;;;;5.07;4.30;;;28.20;99.90;;;;;;5075106;28;20048;-26
2022/06/30 08:00:14;;;;;;;8.63;4.72;;;28.20;99.90;;;;;;5076066;28;20048;-26
2022/06/30 08:02:39;;;;;;;7.05;4.72;;;28.20;99.90;;;;;;5075294;28;20048;-26
2022/06/30 08:05:06;;;;;;;4.63;4.22;;;28.20;99.90;;;;;;5076169;28;20441;-26
2022/06/30 08:07:35;;;;;;;5.03;4.45;;;28.40;99.90;;;;;;5074704;28;20494;-26
2022/06/30 08:10:01;;;;;;;8.25;5.10;;;28.60;99.90;;;;;;5074423;28;20052;-26
2022/06/30 08:12:27;;;;;;;9.70;5.40;;;28.60;99.90;;;;;;5075042;28;20051;-26
2022/06/30 08:14:53;;;;;;;4.90;4.20;;;28.60;99.90;;;;;;5075759;28;20075;-26
2022/06/30 08:17:18;;;;;;;5.20;4.35;;;28.80;99.90;;;;;;5075636;28;20048;-26
2022/06/30 08:19:47;;;;;;;7.68;4.50;;;29.00;99.90;;;;;;5075961;28;20051;-27
2022/06/30 08:22:13;;;;;;;9.18;5.40;;;29.20;99.90;;;;;;5074622;28;20478;-26
2022/06/30 08:24:38;;;;;;;5.05;4.55;;;29.20;99.90;;;;;;5076659;28;20051;-26
2022/06/30 08:27:04;;;;;;;6.28;4.90;;;29.30;99.90;;;;;;5075762;28;20044;-26
2022/06/30 08:29:33;;;;;;;6.70;4.55;;;29.50;99.90;;;;;;5058380;28;20053;-26
2022/06/30 08:32:00;;;;;;;6.43;5.00;;;29.70;99.90;;;;;;5075669;28;20048;-26
2022/06/30 08:34:26;;;;;;;11.02;5.10;;;29.70;99.90;;;;;;5075662;28;20406;-27
2022/06/30 08:36:52;;;;;;;8.70;5.55;;;29.70;99.90;;;;;;5074628;28;20041;-26
2022/06/30 08:42:02;;;;;;;5.70;5.20;;;29.70;99.90;;;;;;5075771;28;20067;-26
2022/06/30 08:44:33;;;;;;;5.97;4.82;;;29.70;99.90;;;;;;5075127;28;20402;-26
2022/06/30 08:46:59;;;;;;;5.60;5.10;;;29.80;99.90;;;;;;5075708;28;20099;-26
2022/06/30 08:49:26;;;;;;;7.93;5.22;;;29.80;99.90;;;;;;5075342;28;20091;-26
2022/06/30 08:51:55;;;;;;;8.77;6.00;;;29.90;99.90;;;;;;5075338;28;20106;-26
2022/06/30 08:54:24;;;;;;;6.07;5.50;;;30.00;99.90;;;;;;5075240;28;20048;-27
2022/06/30 08:56:52;;;;;;;6.30;5.80;;;30.30;99.90;;;;;;5074211;28;20084;-26
2022/06/30 08:59:20;;;;;;;6.18;5.57;;;30.20;99.90;;;;;;5075108;28;20041;-26
2022/06/30 09:01:46;;;;;;;7.43;5.45;;;30.40;92.90;;;;;;5075000;28;20459;-26
2022/06/30 09:04:12;;;;;;;7.35;5.85;;;30.40;70.30;;;;;;5074969;28;20044;-26
2022/06/30 09:06:38;;;;;;;7.25;5.07;;;30.70;99.90;;;;;;5074001;28;20064;-27
2022/06/30 09:09:05;;;;;;;8.55;5.47;;;31.10;74.90;;;;;;5074848;28;20048;-27
2022/06/30 09:11:51;;;;;;;6.88;5.20;;;31.30;38.70;;;;;;5074903;28;20123;-26
2022/06/30 09:14:40;;;;;;;6.07;5.15;;;31.50;1.00;;;;;;5075662;28;20360;-26
2022/06/30 09:17:14;;;;;;;6.82;5.57;;;31.70;1.00;;;;;;5073679;28;20048;-27
2022/06/30 09:19:55;;;;;;;6.90;6.25;;;31.70;1.00;;;;;;5075058;28;20076;-26
2022/06/30 09:22:29;;;;;;;7.28;6.57;;;31.70;1.00;;;;;;5073980;28;20059;-26
2022/06/30 09:24:58;;;;;;;7.57;6.32;;;31.80;1.00;;;;;;5074357;28;20044;-26
2022/06/30 09:27:27;;;;;;;7.53;6.72;;;31.90;1.00;;;;;;5073891;28;20051;-27
2022/06/30 09:29:54;;;;;;;6.72;6.10;;;31.70;1.00;;;;;;5073986;28;20051;-26
2022/06/30 09:32:20;;;;;;;7.95;6.32;;;31.60;1.00;;;;;;5074508;28;20052;-26
2022/06/30 09:34:49;;;;;;;7.45;6.40;;;31.50;1.00;;;;;;5073246;28;20095;-26
2022/06/30 09:37:20;;;;;;;8.70;7.90;;;31.80;1.00;;;;;;5074701;28;20051;-26
2022/06/30 09:39:47;;;;;;;7.13;6.45;;;31.50;1.00;;;;;;5074417;28;20044;-27
2022/06/30 09:42:13;;;;;;;10.68;5.75;;;31.60;1.00;;;;;;5074264;28;20127;-27
2022/06/30 09:44:39;;;;;;;8.27;6.78;;;31.70;1.00;;;;;;5074616;28;20047;-28
2022/06/30 09:47:10;;;;;;;10.88;7.45;;;31.90;1.00;;;;;;5075054;28;20041;-26
2022/06/30 09:49:37;;;;;;;7.13;6.43;;;31.90;1.00;;;;;;5074190;28;20075;-27
2022/06/30 09:52:18;;;;;;;7.72;6.93;;;32.20;1.00;;;;;;5074397;28;20052;-26
2022/06/30 09:55:04;;;;;;;8.05;7.32;;;32.00;1.00;;;;;;5074680;28;20055;-26
2022/06/30 09:57:38;;;;;;;6.53;5.93;;;31.60;1.00;;;;;;5074153;28;20054;-27
2022/06/30 10:00:08;;;;;;;9.63;8.38;;;31.30;1.00;;;;;;5073905;28;20044;-26
2022/06/30 10:02:46;;;;;;;8.50;7.55;;;30.90;1.00;;;;;;5074521;28;20141;-26
2022/06/30 10:05:14;;;;;;;10.52;7.82;;;30.60;1.00;;;;;;5074027;28;20131;-26
2022/06/30 10:07:40;;;;;;;12.02;7.13;;;30.50;1.00;;;;;;5073913;28;20067;-26
2022/06/30 10:10:09;;;;;;;7.93;7.10;;;30.50;1.00;;;;;;5073878;28;20056;-26
2022/06/30 10:12:36;;;;;;;9.50;8.10;;;30.50;1.00;;;;;;5073797;28;20044;-26
2022/06/30 10:15:03;;;;;;;7.72;6.35;;;30.50;1.00;;;;;;5073648;28;20041;-26
2022/06/30 10:17:33;;;;;;;9.45;7.70;;;30.70;1.00;;;;;;5074353;28;20049;-26
2022/06/30 10:19:59;;;;;;;8.13;7.20;;;31.00;1.00;;;;;;5074013;28;20403;-26
2022/06/30 10:22:27;;;;;;;6.88;6.18;;;31.00;1.00;;;;;;5074023;28;20124;-26
2022/06/30 10:24:54;;;;;;;8.68;6.72;;;31.00;1.00;;;;;;5072733;28;20114;-27
2022/06/30 10:27:22;;;;;;;8.45;6.78;;;30.90;1.00;;;;;;5072745;28;20127;-26
2022/06/30 10:29:59;;;;;;;8.25;7.45;;;31.20;1.00;;;;;;5074178;28;20041;-26
2022/06/30 10:32:53;;;;;;;6.05;5.53;;;31.40;1.00;;;;;;5073989;28;20123;-26
2022/06/30 10:35:38;;;;;;;7.20;5.18;;;31.60;99.90;;;;;;5073165;28;20470;-26
2022/06/30 10:38:16;;;;;;;6.78;5.70;;;31.90;99.90;;;;;;5073886;28;20117;-27
2022/06/30 10:40:56;;;;;;;9.60;5.93;;;32.30;99.90;;;;;;5073516;28;20040;-26
2022/06/30 10:43:22;;;;;;;6.03;5.43;;;32.70;99.90;;;;;;5056734;28;20048;-26
2022/06/30 10:45:58;;;;;;;6.70;5.57;;;33.00;99.90;;;;;;5072305;28;20044;-27
2022/06/30 10:48:27;;;;;;;9.63;6.63;;;32.50;99.90;;;;;;5073502;28;20048;-26
2022/06/30 10:50:53;;;;;;;10.80;5.78;;;32.20;99.90;;;;;;5073490;28;20440;-26
2022/06/30 10:53:38;;;;;;;7.03;5.90;;;31.90;99.90;;;;;;5072486;28;20048;-26
2022/06/30 10:56:04;;;;;;;9.85;6.88;;;31.60;99.90;;;;;;5074026;28;20044;-26
2022/06/30 10:58:31;;;;;;;7.68;5.55;;;31.30;99.90;;;;;;5073382;28;20084;-26
2022/06/30 11:01:04;;;;;;;6.65;5.80;;;31.00;99.90;;;;;;5073280;28;20045;-26
2022/06/30 11:03:34;;;;;;;13.88;5.90;;;30.90;99.90;;;;;;5072964;28;20461;-26
2022/06/30 11:06:09;;;;;;;5.95;5.28;;;31.40;1.00;;;;;;5073003;28;20410;-26
2022/06/30 11:08:47;;;;;;;7.05;5.18;;;31.60;99.90;;;;;;5073433;28;20049;-26
2022/06/30 11:11:22;;;;;;;5.63;5.00;;;31.50;99.90;;;;;;5073890;28;20044;-26
2022/06/30 11:13:55;;;;;;;6.10;4.95;;;31.10;99.90;;;;;;5073243;28;20133;-26
2022/06/30 11:16:22;;;;;;;10.13;7.32;;;30.80;99.90;;;;;;5073410;28;20432;-26
2022/06/30 11:18:48;;;;;;;10.18;8.15;;;30.40;1.00;;;;;;5073152;28;20053;-27
2022/06/30 11:21:13;;;;;;;12.48;8.13;;;30.20;3.70;;;;;;5073253;28;20052;-26
2022/06/30 11:23:47;;;;;;;12.82;8.15;;;30.00;29.30;;;;;;5072848;28;20133;-26
2022/06/30 11:29:05;;;;;;;9.07;8.18;;;29.60;96.30;;;;;;5073169;28;20098;-26
2022/06/30 11:31:37;;;;;;;7.55;6.65;;;29.60;20.10;;;;;;5072751;28;20391;-27
2022/06/30 11:34:13;;;;;;;;;;;29.90;99.90;;;;;;5072531;28;20057;-26
2022/06/30 11:36:40;;;;;;;8.70;7.18;;;29.70;49.70;;;;;;5073130;28;19920;-26
2022/06/30 11:39:11;;;;;;;11.60;6.57;;;30.10;1.00;;;;;;5073079;28;20144;-26
2022/06/30 11:44:29;;;;;;;9.80;7.40;;;30.60;1.00;;;;;;5073235;28;20399;-26
2022/06/30 11:47:10;;;;;;;10.55;7.25;;;30.60;1.00;;;;;;5074336;28;20047;-26
2022/06/30 11:49:42;;;;;;;12.20;6.95;;;30.40;1.00;;;;;;5076479;28;20052;-26
2022/06/30 11:52:18;;;;;;;8.27;7.10;;;29.90;1.00;;;;;;5075793;28;20178;-26
2022/06/30 11:54:54;;;;;;;11.43;7.82;;;29.40;99.90;;;;;;5076391;28;20051;-26
2022/06/30 11:57:22;;;;;;;10.15;6.75;;;29.60;64.60;;;;;;5076050;28;20509;-26
2022/06/30 11:59:51;;;;;;;7.55;6.43;;;29.40;99.90;;;;;;5076282;28;20055;-26
2022/06/30 12:02:18;;;;;;;11.85;5.78;;;29.00;99.90;;;;;;5076993;28;20098;-26
2022/06/30 12:04:44;;;;;;;7.75;5.68;;;29.00;99.90;;;;;;5075643;28;20056;-26
2022/06/30 12:07:16;;;;;;;7.32;6.55;;;29.20;69.50;;;;;;5075061;28;20055;-26
2022/06/30 12:09:44;;;;;;;12.03;6.63;;;29.60;1.00;;;;;;5076299;28;20103;-26
2022/06/30 12:12:10;;;;;;;7.88;5.93;;;29.90;1.00;;;;;;5076061;28;20045;-26
2022/06/30 12:14:38;;;;;;;10.18;4.85;;;30.10;1.00;;;;;;5076037;28;20048;-26
2022/06/30 12:17:09;;;;;;;10.60;5.40;;;30.40;1.00;;;;;;5075950;28;20127;-26
2022/06/30 12:19:35;;;;;;;4.88;3.58;;;30.30;1.00;;;;;;5076246;28;20439;-26
2022/06/30 12:22:03;;;;;;;4.93;3.70;;;30.10;99.90;;;;;;5075852;28;20127;-26
2022/06/30 12:24:29;;;;;;;10.70;6.13;;;30.30;99.90;;;;;;5075859;28;20089;-26
2022/06/30 12:26:57;;;;;;;12.10;5.97;;;30.40;99.90;;;;;;5076351;28;20044;-26
2022/06/30 12:29:25;;;;;;;8.63;5.97;;;30.60;1.00;;;;;;5075727;28;20045;-26
2022/06/30 12:31:58;;;;;;;13.40;9.75;;;30.60;1.00;;;;;;5075693;28;20045;-26
2022/06/30 12:34:24;;;;;;;14.95;13.38;;;30.60;1.00;;;;;;5076220;28;20356;-26
2022/06/30 12:36:50;;;;;;;15.52;13.98;;;30.50;52.70;;;;;;5075912;28;20097;-26
2022/06/30 12:39:16;;;;;;;17.67;15.98;;;30.40;99.90;;;;;;5075526;28;20048;-26
2022/06/30 12:41:43;;;;;;;17.10;14.75;;;30.20;99.90;;;;;;5075964;28;20181;-26
2022/06/30 12:44:13;;;;;;;20.05;12.73;;;29.80;99.90;;;;;;5075475;28;20048;-26
2022/06/30 12:46:46;;;;;;;16.63;12.48;;;29.70;99.90;;;;;;5076558;28;20040;-26
2022/06/30 12:49:22;;;;;;;17.88;14.35;;;29.20;99.90;;;;;;5076041;28;20048;-26
2022/06/30 12:51:48;;;;;;;15.20;12.75;;;28.50;99.90;;;;;;5075282;28;20491;-26
2022/06/30 12:54:21;;;;;;;16.42;12.27;;;27.90;1.00;;;;;;5075223;28;20044;-26
2022/06/30 12:56:50;;;;;;;18.15;12.35;;;27.50;1.00;;;;;;5075215;28;20048;-26
2022/06/30 12:59:18;;;;;;;15.82;12.55;;;27.30;99.90;;;;;;5073956;28;20080;-26
2022/06/30 13:01:55;;;;;;;15.48;13.60;;;27.80;99.90;;;;;;5074907;28;20040;-26
2022/06/30 13:04:26;;;;;;;19.10;13.57;;;28.20;64.00;;;;;;5075052;28;20041;-26
2022/06/30 13:06:54;;;;;;;15.90;13.25;;;28.20;23.50;;;;;;5075019;28;20055;-26